createdAt,value
2017-07-06T00:00:16.187Z,64.70
2017-07-06T00:02:43.699Z,64.70
2017-07-06T00:05:14.282Z,64.80
2017-07-06T00:07:42.523Z,66.10
2017-07-06T00:10:09.982Z,65.00
2017-07-06T00:12:39.303Z,65.30
2017-07-06T00:15:06.854Z,65.40
2017-07-06T00:17:34.408Z,65.40
2017-07-06T00:20:01.882Z,65.50
2017-07-06T00:22:29.423Z,65.80
2017-07-06T00:24:56.892Z,65.90
2017-07-06T00:27:24.455Z,65.70
2017-07-06T00:29:52.016Z,65.90
2017-07-06T00:32:20.271Z,66.40
2017-07-06T00:34:47.722Z,66.30
2017-07-06T00:37:15.186Z,66.40
2017-07-06T00:39:42.654Z,66.70
2017-07-06T00:42:10.209Z,66.70
2017-07-06T00:44:37.671Z,67.00
2017-07-06T00:47:05.133Z,67.10
2017-07-06T00:49:32.693Z,67.40
2017-07-06T00:52:00.971Z,68.60
2017-07-06T00:54:29.325Z,68.30
2017-07-06T00:56:56.790Z,67.70
2017-07-06T00:59:24.340Z,67.70
2017-07-06T01:01:51.795Z,67.70
2017-07-06T01:04:19.366Z,68.00
2017-07-06T01:06:46.829Z,68.00
2017-07-06T01:09:15.152Z,68.50
2017-07-06T01:11:42.565Z,68.70
2017-07-06T01:14:10.829Z,68.70
2017-07-06T01:16:38.390Z,67.90
2017-07-06T01:19:05.865Z,68.00
2017-07-06T01:21:34.079Z,68.10
2017-07-06T01:24:01.552Z,67.90
2017-07-06T01:26:29.027Z,68.40
2017-07-06T01:28:56.599Z,68.00
2017-07-06T01:31:24.159Z,68.10
2017-07-06T01:33:52.417Z,68.80
2017-07-06T01:36:19.981Z,68.40
2017-07-06T01:38:47.461Z,68.30
2017-07-06T01:41:15.726Z,68.80
2017-07-06T01:43:43.962Z,68.80
2017-07-06T01:46:11.449Z,68.80
2017-07-06T01:48:38.917Z,68.80
2017-07-06T01:51:07.149Z,69.10
2017-07-06T01:53:34.636Z,68.90
2017-07-06T01:56:02.092Z,68.90
2017-07-06T01:58:29.660Z,69.10
2017-07-06T02:00:57.932Z,69.80
2017-07-06T02:03:25.485Z,69.20
2017-07-06T02:05:53.034Z,69.30
2017-07-06T02:08:20.611Z,69.30
2017-07-06T02:10:48.841Z,70.30
2017-07-06T02:13:16.324Z,69.40
2017-07-06T02:15:43.890Z,69.20
2017-07-06T02:18:11.459Z,69.10
2017-07-06T02:20:39.009Z,69.30
2017-07-06T02:23:06.570Z,69.50
2017-07-06T02:25:34.032Z,69.60
2017-07-06T02:28:02.260Z,70.30
2017-07-06T02:30:29.735Z,69.50
2017-07-06T02:32:57.215Z,69.80
2017-07-06T02:35:24.678Z,70.10
2017-07-06T02:37:52.228Z,69.80
2017-07-06T02:40:19.785Z,69.90
2017-07-06T02:42:47.258Z,70.20
2017-07-06T02:45:15.490Z,70.00
2017-07-06T02:47:42.983Z,70.00
2017-07-06T02:50:10.547Z,69.90
2017-07-06T02:52:38.786Z,70.20
2017-07-06T02:55:06.266Z,69.80
2017-07-06T02:57:33.839Z,69.80
2017-07-06T03:00:02.105Z,70.00
2017-07-06T03:02:29.671Z,69.90
2017-07-06T03:04:57.230Z,69.90
2017-07-06T03:07:25.494Z,70.00
2017-07-06T03:09:52.952Z,69.90
2017-07-06T03:12:20.412Z,70.10
2017-07-06T03:14:48.645Z,71.00
2017-07-06T03:17:16.142Z,70.10
2017-07-06T03:19:43.702Z,70.50
2017-07-06T03:22:11.161Z,70.40
2017-07-06T03:24:38.605Z,70.60
2017-07-06T03:27:06.183Z,70.60
2017-07-06T03:29:34.437Z,70.60
2017-07-06T03:32:02.010Z,70.50
2017-07-06T03:34:29.554Z,70.50
2017-07-06T03:36:57.033Z,70.30
2017-07-06T03:39:25.284Z,70.60
2017-07-06T03:41:52.849Z,70.60
2017-07-06T03:44:20.416Z,70.70
2017-07-06T03:46:47.979Z,70.80
2017-07-06T03:49:16.246Z,71.30
2017-07-06T03:51:43.707Z,71.00
2017-07-06T03:54:11.997Z,71.90
2017-07-06T03:56:40.230Z,71.00
2017-07-06T03:59:07.700Z,71.00
2017-07-06T04:01:35.168Z,71.10
2017-07-06T04:04:02.641Z,71.20
2017-07-06T04:06:30.917Z,71.00
2017-07-06T04:08:59.159Z,70.80
2017-07-06T04:11:26.625Z,70.80
2017-07-06T04:13:54.081Z,70.80
2017-07-06T04:16:21.537Z,70.60
2017-07-06T04:18:49.106Z,70.30
2017-07-06T04:21:16.664Z,70.50
2017-07-06T04:23:44.222Z,70.60
2017-07-06T04:26:11.690Z,70.70
2017-07-06T04:28:39.918Z,71.30
2017-07-06T04:31:07.361Z,70.50
2017-07-06T04:33:34.851Z,70.40
2017-07-06T04:36:02.309Z,70.30
2017-07-06T04:38:29.971Z,70.10
2017-07-06T04:40:57.425Z,70.40
2017-07-06T04:43:24.913Z,70.10
2017-07-06T04:45:53.154Z,70.40
2017-07-06T04:48:20.609Z,70.30
2017-07-06T04:50:48.178Z,70.00
2017-07-06T04:53:15.733Z,69.90
2017-07-06T04:55:43.197Z,69.70
2017-07-06T04:58:10.757Z,69.30
2017-07-06T05:00:38.228Z,68.10
2017-07-06T05:03:06.490Z,67.90
2017-07-06T05:05:33.944Z,67.80
2017-07-06T05:08:01.414Z,67.80
2017-07-06T05:10:28.877Z,67.60
2017-07-06T05:12:57.151Z,67.50
2017-07-06T05:15:25.361Z,67.30
2017-07-06T05:17:52.835Z,67.40
2017-07-06T05:20:20.329Z,67.30
2017-07-06T05:22:47.888Z,67.00
2017-07-06T05:25:15.442Z,66.80
2017-07-06T05:27:42.919Z,66.70
2017-07-06T05:30:11.132Z,66.20
2017-07-06T05:32:38.617Z,66.10
2017-07-06T05:35:06.074Z,65.50
2017-07-06T05:37:33.650Z,65.40
2017-07-06T05:40:01.191Z,64.90
2017-07-06T05:42:28.747Z,64.80
2017-07-06T05:44:56.201Z,64.70
2017-07-06T05:47:23.869Z,65.00
2017-07-06T05:49:51.339Z,65.10
2017-07-06T05:52:18.788Z,64.40
2017-07-06T05:54:46.249Z,63.60
2017-07-06T05:57:13.705Z,64.10
2017-07-06T05:59:41.164Z,64.70
2017-07-06T06:02:08.614Z,64.00
2017-07-06T06:04:36.150Z,63.70
2017-07-06T06:07:03.620Z,64.30
2017-07-06T06:09:31.100Z,63.70
2017-07-06T06:11:59.375Z,63.40
2017-07-06T06:14:26.921Z,63.40
2017-07-06T06:16:54.487Z,63.20
2017-07-06T06:19:21.944Z,62.60
2017-07-06T06:21:49.503Z,62.50
2017-07-06T06:24:17.065Z,62.70
2017-07-06T06:26:45.341Z,62.90
2017-07-06T06:29:12.897Z,62.80
2017-07-06T06:31:41.146Z,61.30
2017-07-06T06:34:08.618Z,61.20
2017-07-06T06:36:36.072Z,61.50
2017-07-06T06:39:03.527Z,61.80
2017-07-06T06:41:31.010Z,62.30
2017-07-06T06:43:59.259Z,61.90
2017-07-06T06:46:26.814Z,61.90
2017-07-06T06:48:54.269Z,62.40
2017-07-06T06:51:22.566Z,61.20
2017-07-06T06:53:50.045Z,61.10
2017-07-06T06:56:17.571Z,60.70
2017-07-06T06:58:45.037Z,59.90
2017-07-06T07:01:13.331Z,58.70
2017-07-06T07:03:41.576Z,57.30
2017-07-06T07:06:09.152Z,57.30
2017-07-06T07:08:37.377Z,58.20
2017-07-06T07:11:04.838Z,58.20
2017-07-06T07:13:32.306Z,57.40
2017-07-06T07:18:33.811Z,56.20
2017-07-06T07:21:02.103Z,57.50
2017-07-06T07:23:29.530Z,57.30
2017-07-06T07:25:56.990Z,56.70
2017-07-06T07:28:25.208Z,56.60
2017-07-06T07:30:52.690Z,56.90
2017-07-06T07:33:20.171Z,55.70
2017-07-06T07:35:47.635Z,55.90
2017-07-06T07:38:15.885Z,56.20
2017-07-06T07:40:43.413Z,55.70
2017-07-06T07:43:10.908Z,55.20
2017-07-06T07:45:38.365Z,54.60
2017-07-06T07:48:05.822Z,53.80
2017-07-06T07:50:33.391Z,52.80
2017-07-06T07:53:00.858Z,54.20
2017-07-06T07:55:29.086Z,52.40
2017-07-06T07:57:56.590Z,52.30
2017-07-06T08:00:24.841Z,53.10
2017-07-06T08:02:52.297Z,53.00
2017-07-06T08:05:19.864Z,53.60
2017-07-06T08:07:47.480Z,53.50
2017-07-06T08:10:14.991Z,52.50
2017-07-06T08:12:42.532Z,51.10
2017-07-06T08:15:10.001Z,52.50
2017-07-06T08:17:37.552Z,52.60
2017-07-06T08:20:05.217Z,52.20
2017-07-06T08:22:32.782Z,52.70
2017-07-06T08:25:00.319Z,52.00
2017-07-06T08:27:27.829Z,51.00
2017-07-06T08:29:55.352Z,50.80
2017-07-06T08:32:22.813Z,51.80
2017-07-06T08:34:50.283Z,51.60
2017-07-06T08:37:18.537Z,50.40
2017-07-06T08:39:46.101Z,50.40
2017-07-06T08:42:13.645Z,50.30
2017-07-06T08:44:41.110Z,50.80
2017-07-06T08:47:08.673Z,50.60
2017-07-06T08:49:36.158Z,51.60
2017-07-06T08:52:03.638Z,51.00
2017-07-06T08:54:31.137Z,51.00
2017-07-06T08:56:58.593Z,50.50
2017-07-06T08:59:26.494Z,51.30
2017-07-06T09:01:54.743Z,52.00
2017-07-06T09:04:22.209Z,51.90
2017-07-06T09:06:50.449Z,52.10
2017-07-06T09:09:17.936Z,51.30
2017-07-06T09:11:45.476Z,51.10
2017-07-06T09:14:12.941Z,51.80
2017-07-06T09:16:40.402Z,51.70
2017-07-06T09:19:07.871Z,51.20
2017-07-06T09:21:36.126Z,50.70
2017-07-06T09:24:03.593Z,50.10
2017-07-06T09:26:31.073Z,50.90
2017-07-06T09:28:59.292Z,50.80
2017-07-06T09:31:26.778Z,50.70
2017-07-06T09:33:54.343Z,50.50
2017-07-06T09:36:21.791Z,50.90
2017-07-06T09:38:49.243Z,51.80
2017-07-06T09:41:16.814Z,51.50
2017-07-06T09:43:44.360Z,50.20
2017-07-06T09:46:11.845Z,50.60
2017-07-06T09:48:40.085Z,49.70
2017-07-06T09:51:07.662Z,49.70
2017-07-06T09:53:35.210Z,49.60
2017-07-06T09:56:02.663Z,50.20
2017-07-06T09:58:30.130Z,49.80
2017-07-06T10:00:57.682Z,48.90
2017-07-06T10:03:25.241Z,47.60
2017-07-06T10:05:52.815Z,47.50
2017-07-06T10:08:21.041Z,46.60
2017-07-06T10:10:48.532Z,46.60
2017-07-06T10:13:15.998Z,48.10
2017-07-06T10:15:43.553Z,45.60
2017-07-06T10:18:11.005Z,46.50
2017-07-06T10:20:38.467Z,47.30
2017-07-06T10:23:06.737Z,46.50
2017-07-06T10:25:34.193Z,46.90
2017-07-06T10:28:01.647Z,46.80
2017-07-06T10:30:29.097Z,45.60
2017-07-06T10:32:56.667Z,46.10
2017-07-06T10:35:24.225Z,44.90
2017-07-06T10:37:51.799Z,44.70
2017-07-06T10:40:20.058Z,46.40
2017-07-06T10:42:47.524Z,46.40
2017-07-06T10:45:14.984Z,47.10
2017-07-06T10:47:42.446Z,46.30
2017-07-06T10:50:10.684Z,47.10
2017-07-06T10:52:38.188Z,46.40
2017-07-06T10:55:06.427Z,47.10
2017-07-06T10:57:33.895Z,47.00
2017-07-06T11:00:01.367Z,47.50
2017-07-06T11:02:29.604Z,45.30
2017-07-06T11:04:57.155Z,45.20
2017-07-06T11:07:24.737Z,46.10
2017-07-06T11:09:52.222Z,46.80
2017-07-06T11:12:19.762Z,44.60
2017-07-06T11:14:47.313Z,46.50
2017-07-06T11:17:14.779Z,44.80
2017-07-06T11:19:42.333Z,43.50
2017-07-06T11:22:09.783Z,43.80
2017-07-06T11:24:37.245Z,43.30
2017-07-06T11:27:04.706Z,43.90
2017-07-06T11:29:32.966Z,42.80
2017-07-06T11:32:00.425Z,42.30
2017-07-06T11:34:27.977Z,43.00
2017-07-06T11:36:55.437Z,43.00
2017-07-06T11:39:22.991Z,41.50
2017-07-06T11:41:50.562Z,42.60
2017-07-06T11:44:18.127Z,41.90
2017-07-06T11:46:45.672Z,43.70
2017-07-06T11:49:13.122Z,44.80
2017-07-06T11:51:40.693Z,41.10
2017-07-06T11:54:08.249Z,42.80
2017-07-06T11:56:35.697Z,43.00
2017-07-06T11:59:03.155Z,41.10
2017-07-06T12:01:30.736Z,42.80
2017-07-06T12:03:58.280Z,43.90
2017-07-06T12:06:25.727Z,43.60
2017-07-06T12:08:53.200Z,43.60
2017-07-06T12:11:20.740Z,42.40
2017-07-06T12:13:48.328Z,41.20
2017-07-06T12:16:15.772Z,39.30
2017-07-06T12:18:43.320Z,40.80
2017-07-06T12:21:10.888Z,39.30
2017-07-06T12:23:38.358Z,42.00
2017-07-06T12:26:05.902Z,40.30
2017-07-06T12:28:33.461Z,39.30
2017-07-06T12:31:00.979Z,39.50
2017-07-06T12:33:28.436Z,41.30
2017-07-06T12:35:55.880Z,39.00
2017-07-06T12:38:23.389Z,40.40
2017-07-06T12:40:50.854Z,38.30
2017-07-06T12:43:18.299Z,38.00
2017-07-06T12:45:45.767Z,37.40
2017-07-06T12:48:13.223Z,37.40
2017-07-06T12:50:40.778Z,37.20
2017-07-06T12:53:08.346Z,37.30
2017-07-06T12:55:35.889Z,38.80
2017-07-06T12:58:03.449Z,37.60
2017-07-06T13:00:31.013Z,39.00
2017-07-06T13:02:58.466Z,41.00
2017-07-06T13:05:26.040Z,39.50
2017-07-06T13:07:54.293Z,38.30
2017-07-06T13:10:21.857Z,38.20
2017-07-06T13:12:49.411Z,39.20
2017-07-06T13:15:16.887Z,39.20
2017-07-06T13:17:45.157Z,37.10
2017-07-06T13:20:13.437Z,38.70
2017-07-06T13:22:40.992Z,38.20
2017-07-06T13:25:08.432Z,37.60
2017-07-06T13:27:35.893Z,37.80
2017-07-06T13:30:03.353Z,38.20
2017-07-06T13:32:30.810Z,39.70
2017-07-06T13:34:58.255Z,37.10
2017-07-06T13:37:25.830Z,36.10
2017-07-06T13:39:53.441Z,35.90
2017-07-06T13:42:20.927Z,38.00
2017-07-06T13:44:48.502Z,38.50
2017-07-06T13:47:16.044Z,39.10
2017-07-06T13:49:43.495Z,38.60
2017-07-06T13:52:10.978Z,37.50
2017-07-06T13:54:38.421Z,38.80
2017-07-06T13:57:05.892Z,38.80
2017-07-06T13:59:34.124Z,35.50
2017-07-06T14:02:01.623Z,35.90
2017-07-06T14:04:29.082Z,34.90
2017-07-06T14:06:56.528Z,35.60
2017-07-06T14:09:24.089Z,35.80
2017-07-06T14:11:51.660Z,35.70
2017-07-06T14:14:19.163Z,36.40
2017-07-06T14:16:46.657Z,35.20
2017-07-06T14:19:14.130Z,36.90
2017-07-06T14:21:41.689Z,36.20
2017-07-06T14:24:09.195Z,37.00
2017-07-06T14:26:36.653Z,35.80
2017-07-06T14:29:04.146Z,34.20
2017-07-06T14:31:31.692Z,33.80
2017-07-06T14:33:59.152Z,36.00
2017-07-06T14:36:26.723Z,36.30
2017-07-06T14:38:54.192Z,34.70
2017-07-06T14:41:21.654Z,31.80
2017-07-06T14:43:49.921Z,34.90
2017-07-06T14:46:17.469Z,34.80
2017-07-06T14:48:44.921Z,33.60
2017-07-06T14:51:12.381Z,33.90
2017-07-06T14:53:39.843Z,33.60
2017-07-06T14:56:07.418Z,34.80
2017-07-06T14:58:35.733Z,35.50
2017-07-06T15:01:03.238Z,35.50
2017-07-06T15:03:30.796Z,36.50
2017-07-06T15:05:58.351Z,37.00
2017-07-06T15:08:25.913Z,37.30
2017-07-06T15:10:53.369Z,35.90
2017-07-06T15:13:20.829Z,36.50
2017-07-06T15:15:48.273Z,36.60
2017-07-06T15:18:15.742Z,36.80
2017-07-06T15:20:43.299Z,37.70
2017-07-06T15:23:10.840Z,36.90
2017-07-06T15:25:38.307Z,37.60
2017-07-06T15:28:05.769Z,38.60
2017-07-06T15:30:33.220Z,38.50
2017-07-06T15:33:00.677Z,38.90
2017-07-06T15:35:28.129Z,38.90
2017-07-06T15:37:55.599Z,39.20
2017-07-06T15:40:23.058Z,38.90
2017-07-06T15:42:50.527Z,39.30
2017-07-06T15:45:18.783Z,38.30
2017-07-06T15:47:46.336Z,38.30
2017-07-06T15:50:13.904Z,37.80
2017-07-06T15:52:41.356Z,37.20
2017-07-06T15:55:08.968Z,37.60
2017-07-06T15:57:36.478Z,38.80
2017-07-06T16:00:04.005Z,39.50
2017-07-06T16:02:31.486Z,40.00
2017-07-06T16:04:59.061Z,39.80
2017-07-06T16:07:26.529Z,39.80
2017-07-06T16:09:53.990Z,38.30
2017-07-06T16:12:21.446Z,37.40
2017-07-06T16:14:48.901Z,39.00
2017-07-06T16:17:16.361Z,39.00
2017-07-06T16:19:43.822Z,39.10
2017-07-06T16:22:11.291Z,39.80
2017-07-06T16:24:38.746Z,39.40
2017-07-06T16:27:06.244Z,38.40
2017-07-06T16:29:33.703Z,37.70
2017-07-06T16:32:01.224Z,36.60
2017-07-06T16:34:28.722Z,37.60
2017-07-06T16:36:56.239Z,36.20
2017-07-06T16:39:23.743Z,36.60
2017-07-06T16:41:51.208Z,36.60
2017-07-06T16:44:18.747Z,36.60
2017-07-06T16:46:46.212Z,36.50
2017-07-06T16:49:13.755Z,36.30
2017-07-06T16:51:41.216Z,35.90
2017-07-06T16:54:08.781Z,35.30
2017-07-06T16:56:36.233Z,37.30
2017-07-06T16:59:03.699Z,37.60
2017-07-06T17:01:31.244Z,37.10
2017-07-06T17:03:58.808Z,37.80
2017-07-06T17:06:26.269Z,35.30
2017-07-06T17:08:53.729Z,36.40
2017-07-06T17:11:21.281Z,37.60
2017-07-06T17:13:48.851Z,37.60
2017-07-06T17:16:16.393Z,37.70
2017-07-06T17:18:43.954Z,36.30
2017-07-06T17:21:11.423Z,36.10
2017-07-06T17:23:38.881Z,37.30
2017-07-06T17:26:06.423Z,36.60
2017-07-06T17:28:33.890Z,35.20
2017-07-06T17:31:01.459Z,36.60
2017-07-06T17:33:29.004Z,37.60
2017-07-06T17:35:56.456Z,37.50
2017-07-06T17:38:23.904Z,37.20
2017-07-06T17:40:51.379Z,38.10
2017-07-06T17:43:18.832Z,38.30
2017-07-06T17:45:46.289Z,38.60
2017-07-06T17:48:13.871Z,38.10
2017-07-06T17:50:41.354Z,39.60
2017-07-06T17:53:08.876Z,38.50
2017-07-06T17:55:37.109Z,39.40
2017-07-06T17:58:04.600Z,39.40
2017-07-06T18:00:32.865Z,40.70
2017-07-06T18:03:00.429Z,40.60
2017-07-06T18:05:27.987Z,41.00
2017-07-06T18:07:55.550Z,41.70
2017-07-06T18:10:23.092Z,42.30
2017-07-06T18:12:50.556Z,42.30
2017-07-06T18:15:18.117Z,43.00
2017-07-06T18:17:47.131Z,43.40
2017-07-06T18:20:15.398Z,43.30
2017-07-06T18:22:42.839Z,43.30
2017-07-06T18:25:10.408Z,44.20
2017-07-06T18:27:37.948Z,45.00
2017-07-06T18:30:05.421Z,45.50
2017-07-06T18:32:32.891Z,46.30
2017-07-06T18:35:01.149Z,47.00
2017-07-06T18:37:28.616Z,46.50
2017-07-06T18:39:56.153Z,47.20
2017-07-06T18:42:23.722Z,46.80
2017-07-06T18:44:51.282Z,47.00
2017-07-06T18:47:18.736Z,47.00
2017-07-06T18:49:46.288Z,47.10
2017-07-06T18:52:13.844Z,47.60
2017-07-06T18:54:41.305Z,47.90
2017-07-06T18:57:08.851Z,48.10
2017-07-06T18:59:36.411Z,48.40
2017-07-06T19:02:03.868Z,48.70
2017-07-06T19:04:31.334Z,48.80
2017-07-06T19:06:58.889Z,48.50
2017-07-06T19:09:26.358Z,48.60
2017-07-06T19:11:53.812Z,48.60
2017-07-06T19:14:21.379Z,49.00
2017-07-06T19:16:48.915Z,49.10
2017-07-06T19:19:16.477Z,49.20
2017-07-06T19:21:44.103Z,49.20
2017-07-06T19:24:11.563Z,49.20
2017-07-06T19:26:39.062Z,49.60
2017-07-06T19:29:06.608Z,49.70
2017-07-06T19:31:35.471Z,49.60
2017-07-06T19:34:03.066Z,49.80
2017-07-06T19:36:30.625Z,50.20
2017-07-06T19:38:58.194Z,50.50
2017-07-06T19:41:25.738Z,50.60
2017-07-06T19:43:53.193Z,50.90
2017-07-06T19:46:20.765Z,51.20
2017-07-06T19:48:48.227Z,51.50
2017-07-06T19:51:15.778Z,51.60
2017-07-06T19:53:43.344Z,51.70
2017-07-06T19:56:10.894Z,51.80
2017-07-06T19:58:38.454Z,52.00
2017-07-06T20:01:06.014Z,52.30
2017-07-06T20:03:33.566Z,52.20
2017-07-06T20:06:01.027Z,52.20
2017-07-06T20:08:28.583Z,52.20
2017-07-06T20:10:56.128Z,52.50
2017-07-06T20:13:23.593Z,52.50
2017-07-06T20:15:51.149Z,52.50
2017-07-06T20:18:18.613Z,52.70
2017-07-06T20:20:46.080Z,52.70
2017-07-06T20:23:13.549Z,52.60
2017-07-06T20:25:41.762Z,52.90
2017-07-06T20:28:09.229Z,52.90
2017-07-06T20:30:36.681Z,52.90
2017-07-06T20:33:04.151Z,53.00
2017-07-06T20:35:31.629Z,53.00
2017-07-06T20:37:59.175Z,53.30
2017-07-06T20:40:26.628Z,52.90
2017-07-06T20:42:54.103Z,52.70
2017-07-06T20:45:21.578Z,52.50
2017-07-06T20:47:49.835Z,52.00
2017-07-06T20:50:17.288Z,51.90
2017-07-06T20:52:44.849Z,52.20
2017-07-06T20:55:12.404Z,52.10
2017-07-06T20:57:39.946Z,51.50
2017-07-06T21:00:07.512Z,51.30
2017-07-06T21:02:35.095Z,51.10
2017-07-06T21:05:02.552Z,51.10
2017-07-06T21:07:30.786Z,51.10
2017-07-06T21:09:58.258Z,51.10
2017-07-06T21:12:25.731Z,50.90
2017-07-06T21:14:53.291Z,50.90
2017-07-06T21:17:20.846Z,51.10
2017-07-06T21:19:48.401Z,51.40
2017-07-06T21:22:15.952Z,51.60
2017-07-06T21:24:43.418Z,51.60
2017-07-06T21:27:10.872Z,51.80
2017-07-06T21:29:38.335Z,51.90
2017-07-06T21:32:05.875Z,52.00
2017-07-06T21:34:33.351Z,52.20
2017-07-06T21:37:00.813Z,52.40
2017-07-06T21:39:29.079Z,52.50
2017-07-06T21:41:56.636Z,52.50
2017-07-06T21:44:24.502Z,52.30
2017-07-06T21:46:52.047Z,52.40
2017-07-06T21:49:19.517Z,52.60
2017-07-06T21:51:46.983Z,52.80
2017-07-06T21:54:14.520Z,52.70
2017-07-06T21:56:41.987Z,52.60
2017-07-06T21:59:09.446Z,52.90
2017-07-06T22:01:36.906Z,52.90
2017-07-06T22:04:04.444Z,52.80
2017-07-06T22:06:31.906Z,52.90
2017-07-06T22:08:59.475Z,52.50
2017-07-06T22:11:27.024Z,52.70
2017-07-06T22:13:54.599Z,53.20
2017-07-06T22:16:22.178Z,52.70
2017-07-06T22:18:49.709Z,52.40
2017-07-06T22:21:17.369Z,52.50
2017-07-06T22:23:44.820Z,52.50
2017-07-06T22:26:12.282Z,52.10
2017-07-06T22:28:39.842Z,52.10
2017-07-06T22:31:07.298Z,51.70
2017-07-06T22:33:34.763Z,51.70
2017-07-06T22:36:02.310Z,51.70
2017-07-06T22:38:29.761Z,51.60
2017-07-06T22:40:57.328Z,51.60
2017-07-06T22:43:24.894Z,51.70
2017-07-06T22:45:52.356Z,51.90
2017-07-06T22:48:20.610Z,51.90
2017-07-06T22:50:48.173Z,51.80
2017-07-06T22:53:15.629Z,51.80
2017-07-06T22:55:43.180Z,51.90
2017-07-06T22:58:10.641Z,51.70
2017-07-06T23:00:38.200Z,51.80
2017-07-06T23:03:06.041Z,51.90
2017-07-06T23:05:33.530Z,52.10
2017-07-06T23:08:01.085Z,51.80
2017-07-06T23:10:28.651Z,52.00
2017-07-06T23:12:56.196Z,51.90
2017-07-06T23:15:23.655Z,51.90
2017-07-06T23:17:51.224Z,51.90
2017-07-06T23:20:18.677Z,52.00
2017-07-06T23:22:46.234Z,52.10
2017-07-06T23:25:13.803Z,51.90
2017-07-06T23:27:41.309Z,52.00
2017-07-06T23:30:08.820Z,52.00
2017-07-06T23:32:36.382Z,52.20
2017-07-06T23:35:04.641Z,52.00
2017-07-06T23:37:32.194Z,52.00
2017-07-06T23:39:59.762Z,52.10
2017-07-06T23:42:27.308Z,52.00
2017-07-06T23:44:54.769Z,52.30
2017-07-06T23:47:22.216Z,52.60
2017-07-06T23:49:49.688Z,52.60
2017-07-06T23:52:17.235Z,52.40
2017-07-06T23:54:44.811Z,52.50
2017-07-06T23:57:12.279Z,52.80
2017-07-06T23:59:40.546Z,52.50
